Latest Weather Observations for Oodnadatta

IDS60801

Issued at 3:02 pm CST Monday 27 April 2015 (issued every 30 minutes, with the page automatically refreshed every 10 minutes)

About weather observations | Map of weather stations | Latest weather observations for SA | Other Formats
Station Details ID: 017043 Name: OODNADATTA AIRPORT Lat: -27.56 Lon: 135.45 Height: 116.5 m
Data from the previous 72 hours. | See also: Recent months at Oodnadatta
Date/Time
CST
Temp
°C
App
Temp
°C
Dew
Point
Rel
Hum
%
Delta-T
°C
Wind Press
QNH
hPa
Press
MSL
hPa
Rain
since 9 am
mm
Dir
 
Spd
km/h
Gust
km/h
Spd
kts
Gust
kts
27/03:00pm 21.4 15.9 4.0 32 8.4 SSE 22 33 12 18 1023.9 1023.5 0.0
27/02:30pm 20.6 15.5 4.2 34 7.9 S 20 30 11 16 1023.9 - 0.0
27/02:00pm 20.8 13.7 3.5 32 8.3 SE 30 37 16 20 1023.8 - 0.0
27/01:30pm 19.8 15.8 3.1 33 7.9 S 13 32 7 17 1024.5 - 0.0
27/01:00pm 20.3 15.4 5.1 37 7.5 S 20 32 11 17 1024.8 - 0.0
27/12:30pm 19.9 15.1 4.8 37 7.4 SSE 19 28 10 15 1025.5 - 0.0
27/12:00pm 18.9 14.3 5.7 42 6.5 SSE 19 32 10 17 1026.2 1025.9 0.0
27/11:30am 18.9 14.2 6.1 43 6.4 SSE 20 28 11 15 1026.6 - 0.0
27/11:00am 18.5 13.9 6.4 45 6.0 SSE 20 28 11 15 1026.9 - 0.0
27/10:30am 17.5 14.4 7.3 51 5.1 SSE 13 19 7 10 1027.2 - 0.0
27/10:00am 15.9 12.2 6.3 53 4.7 SSE 15 22 8 12 1027.6 - 0.0
27/09:30am 15.1 12.0 5.6 53 4.5 SSE 11 19 6 10 1027.5 - 0.0
27/09:00am 13.3 10.3 3.9 53 4.3 S 9 13 5 7 1027.4 1027.1 0.0
27/08:30am 12.2 9.1 3.4 55 3.9 S 9 11 5 6 1027.3 - 0.0
27/08:00am 10.5 7.3 2.8 59 3.3 S 9 9 5 5 1027.0 - 0.0
27/07:30am 8.7 5.0 2.3 64 2.7 S 11 13 6 7 1026.7 - 0.0
27/07:00am 8.0 3.8 1.8 65 2.6 S 13 15 7 8 1026.3 - 0.0
27/06:30am 8.2 4.8 1.8 64 2.7 S 9 9 5 5 1026.0 - 0.0
27/06:00am 8.7 5.0 2.3 64 2.7 S 11 13 6 7 1025.9 1025.6 0.0
27/05:30am 9.2 6.3 2.5 63 2.9 S 7 11 4 6 1025.2 - 0.0
27/05:00am 10.1 6.9 3.2 62 3.0 SSW 9 11 5 6 1024.9 - 0.0
27/04:30am 10.4 7.2 3.2 61 3.1 SW 9 11 5 6 1024.8 - 0.0
27/04:00am 10.8 7.2 3.1 59 3.4 SSW 11 13 6 7 1024.6 - 0.0
27/03:30am 11.3 8.1 3.3 58 3.5 SSW 9 13 5 7 1024.7 - 0.0
27/03:00am 11.5 8.4 3.8 59 3.4 SSW 9 11 5 6 1024.6 1024.2 0.0
27/02:30am 12.1 8.2 3.6 56 3.8 S 13 13 7 7 1024.6 - 0.0
27/02:00am 12.9 8.8 4.1 55 4.0 SSE 15 19 8 10 1024.6 - 0.0
27/01:30am 12.8 9.0 4.0 55 4.0 SSE 13 17 7 9 1024.8 - 0.0
27/01:00am 13.3 9.9 3.9 53 4.3 SSE 11 13 6 7 1025.0 - 0.0
27/12:30am 14.0 10.6 4.0 51 4.6 S 11 15 6 8 1025.0 - 0.0
27/12:00am 14.6 10.1 4.3 50 4.8 S 17 20 9 11 1025.1 1024.7 0.0
 
Date/Time
CST
Temp
°C
App
Temp
°C
Dew
Point
Rel
Hum
%
Delta-T
°C
Wind Press
QNH
hPa
Press
MSL
hPa
Rain
since 9 am
mm
Dir
 
Spd
km/h
Gust
km/h
Spd
kts
Gust
kts
26/11:30pm 15.4 10.4 4.5 48 5.1 S 20 24 11 13 1025.1 - 0.0
26/11:00pm 16.1 11.1 4.5 46 5.5 SSE 20 26 11 14 1025.3 - 0.0
26/10:30pm 16.5 10.4 4.9 46 5.5 S 26 30 14 16 1025.4 - 0.0
26/10:00pm 16.9 11.1 4.6 44 5.9 S 24 30 13 16 1025.5 - 0.0
26/09:30pm 17.5 11.0 4.8 43 6.1 S 28 35 15 19 1025.4 - 0.0
26/09:18pm 18.0 11.2 4.9 42 6.3 S 30 35 16 19 1025.4 - 0.0
26/09:00pm 18.3 14.9 4.1 39 6.7 S 11 13 6 7 1025.1 1024.7 0.0
26/08:30pm 18.7 14.6 4.1 38 6.9 S 15 19 8 10 1024.8 - 0.0
26/08:00pm 19.4 14.5 4.0 36 7.4 SSE 19 28 10 15 1024.6 - 0.0
26/07:30pm 19.6 15.2 4.9 38 7.2 S 17 20 9 11 1024.2 - 0.0
26/07:00pm 19.8 15.0 5.5 39 7.1 S 20 26 11 14 1023.8 - 0.0
26/06:30pm 20.1 14.9 5.4 38 7.3 S 22 28 12 15 1023.6 - 0.0
26/06:00pm 20.5 15.8 5.3 37 7.5 SSW 19 24 10 13 1023.2 1022.8 0.0
26/05:30pm 20.8 16.2 5.6 37 7.6 SSW 19 24 10 13 1023.0 - 0.0
26/05:00pm 20.8 16.6 5.6 37 7.6 S 17 22 9 12 1022.8 - 0.0
26/04:30pm 21.0 16.7 5.4 36 7.8 S 17 24 9 13 1022.5 - 0.0
26/04:00pm 21.4 18.4 6.1 37 7.7 SE 11 17 6 9 1022.6 - 0.0
26/03:30pm 20.7 17.4 6.6 40 7.2 S 13 20 7 11 1022.6 - 0.0
26/03:00pm 21.2 17.7 7.1 40 7.2 S 15 20 8 11 1022.8 1022.4 0.0
26/02:30pm 20.7 17.7 7.7 43 6.7 SSE 13 20 7 11 1023.1 - 0.0
26/02:00pm 20.1 17.1 7.8 45 6.4 S 13 20 7 11 1023.2 - 0.0
26/01:30pm 20.6 18.1 8.3 45 6.5 SSW 11 24 6 13 1023.4 - 0.0
26/01:00pm 20.3 17.9 7.0 42 6.8 SSE 9 20 5 11 1023.7 - 0.0
26/12:30pm 19.5 16.5 7.9 47 6.0 S 13 17 7 9 1024.2 - 0.0
26/12:00pm 19.2 15.7 7.3 46 6.0 SSE 15 22 8 12 1024.7 1024.3 0.0
26/11:30am 18.7 15.6 8.7 52 5.2 SSE 15 20 8 11 1025.1 - 0.0
26/11:00am 18.5 15.6 9.6 56 4.7 SSE 15 22 8 12 1025.4 - 0.0
26/10:30am 18.0 14.7 9.6 58 4.4 SE 17 26 9 14 1025.7 - 0.0
26/10:00am 17.5 13.2 9.4 59 4.3 SE 22 32 12 17 1025.7 - 0.0
26/09:30am 17.4 13.2 9.6 60 4.1 SSE 22 28 12 15 1025.9 - 0.0
26/09:00am 16.1 11.4 9.1 63 3.6 SSE 24 30 13 16 1025.8 1025.5 0.0
26/08:30am 15.1 11.8 7.9 62 3.6 S 15 19 8 10 1025.6 - 0.0
26/08:00am 13.3 11.0 5.7 60 3.6 SSW 7 11 4 6 1025.2 - 0.0
26/07:30am 11.4 10.1 3.9 60 3.4 CALM 0 7 0 4 1024.7 - 0.0
26/07:00am 10.5 8.7 3.5 62 3.1 SSW 2 6 1 3 1024.4 - 0.0
26/06:30am 11.0 9.8 4.7 65 2.9 CALM 0 0 0 0 1024.0 - 0.0
26/06:00am 10.7 9.4 4.2 64 2.9 CALM 0 0 0 0 1023.8 1023.4 0.0
26/05:30am 10.5 9.2 4.0 64 2.9 CALM 0 0 0 0 1023.3 - 0.0
26/05:00am 10.5 7.8 3.8 63 3.0 S 7 9 4 5 1023.1 - 0.0
26/04:30am 10.9 7.9 3.9 62 3.1 SSW 9 11 5 6 1022.8 - 0.0
26/04:00am 11.1 8.5 4.3 63 3.1 SW 7 9 4 5 1022.6 - 0.0
26/03:30am 11.3 8.9 4.1 61 3.2 SW 6 7 3 4 1022.5 - 0.0
26/03:00am 11.3 8.2 3.8 60 3.3 SSW 9 9 5 5 1022.2 1021.8 0.0
26/02:30am 11.8 8.4 3.8 58 3.6 SSW 11 13 6 7 1022.1 - 0.0
26/02:00am 12.3 8.5 4.0 57 3.8 SSW 13 15 7 8 1022.0 - 0.0
26/01:30am 12.5 8.7 4.0 56 3.9 S 13 15 7 8 1022.0 - 0.0
26/01:00am 13.0 9.2 3.9 54 4.1 S 13 15 7 8 1022.2 - 0.0
26/12:30am 12.5 8.9 2.9 52 4.2 S 11 15 6 8 1022.3 - 0.0
26/12:00am 12.8 8.8 2.6 50 4.5 S 13 15 7 8 1022.4 1022.0 0.0
 
Date/Time
CST
Temp
°C
App
Temp
°C
Dew
Point
Rel
Hum
%
Delta-T
°C
Wind Press
QNH
hPa
Press
MSL
hPa
Rain
since 9 am
mm
Dir
 
Spd
km/h
Gust
km/h
Spd
kts
Gust
kts
25/11:30pm 13.1 9.4 2.6 49 4.6 S 11 13 6 7 1022.5 - 0.0
25/11:00pm 13.9 10.3 2.8 47 5.0 SSW 11 11 6 6 1022.6 - 0.0
25/10:30pm 14.2 10.6 2.8 46 5.1 SSW 11 13 6 7 1022.8 - 0.0
25/10:00pm 14.7 11.0 2.6 44 5.4 SSW 11 13 6 7 1022.8 - 0.0
25/09:30pm 15.3 11.2 2.5 42 5.8 SSW 13 17 7 9 1022.6 - 0.0
25/09:00pm 16.0 11.9 2.4 40 6.1 SSW 13 15 7 8 1022.4 1022.0 0.0
25/08:30pm 16.5 12.1 2.5 39 6.4 SSW 15 17 8 9 1021.9 - 0.0
25/08:00pm 17.1 13.1 2.7 38 6.6 SSW 13 15 7 8 1021.5 - 0.0
25/07:30pm 17.9 13.9 3.0 37 6.9 SSW 13 15 7 8 1021.0 - 0.0
25/07:00pm 18.8 14.1 3.0 35 7.4 SSW 17 20 9 11 1020.4 - 0.0
25/06:30pm 19.5 14.2 3.2 34 7.7 SSW 20 28 11 15 1020.0 - 0.0
25/06:00pm 20.2 13.8 3.0 32 8.1 SSW 26 35 14 19 1019.6 1019.3 0.0
25/05:30pm 20.7 13.6 3.4 32 8.3 SSW 30 37 16 20 1019.3 - 0.0
25/05:00pm 21.2 14.2 3.9 32 8.4 SSW 30 41 16 22 1019.0 - 0.0
25/04:30pm 21.4 14.4 4.0 32 8.5 SSW 30 35 16 19 1018.8 - 0.0
25/04:00pm 21.5 14.1 4.1 32 8.5 SSW 32 44 17 24 1018.9 - 0.0
25/03:30pm 21.3 14.4 4.4 33 8.3 SSW 30 43 16 23 1018.9 - 0.0
25/03:00pm 21.4 14.5 4.5 33 8.3 SW 30 39 16 21 1019.0 1018.7 0.0
25/02:30pm 21.4 14.2 4.9 34 8.2 SSW 32 46 17 25 1018.9 - 0.0
25/02:00pm 20.7 13.2 4.7 35 7.8 SW 33 48 18 26 1019.2 - 0.0
25/01:30pm 19.8 12.1 5.5 39 7.1 SSW 35 50 19 27 1019.5 - 0.0
25/01:00pm 19.6 12.0 6.0 41 6.8 SSW 35 44 19 24 1020.0 - 0.0
25/12:47pm 19.6 12.1 6.3 42 6.7 SSW 35 54 19 29 1020.2 - 0.0
25/12:30pm 18.9 10.2 6.1 43 6.4 SW 41 56 22 30 1020.5 - 0.0
25/12:00pm 19.1 10.8 6.2 43 6.4 SSW 39 50 21 27 1021.0 1020.6 0.0
25/11:30am 18.0 9.8 6.5 47 5.7 SSW 39 48 21 26 1021.5 - 0.0
25/11:00am 17.8 9.5 6.3 47 5.7 SSW 39 57 21 31 1021.6 - 0.0
25/10:30am 17.1 9.0 6.9 51 5.1 SSW 39 50 21 27 1021.9 - 0.0
25/10:00am 16.5 7.9 6.6 52 4.9 SSW 41 54 22 29 1021.9 - 0.0
25/09:30am 15.6 7.5 7.1 57 4.2 SSW 39 50 21 27 1021.9 - 0.0
25/09:00am 14.3 6.9 6.9 61 3.6 SW 35 43 19 23 1021.9 1021.5 0.0
25/08:30am 13.1 6.1 6.7 65 3.1 WSW 33 43 18 23 1021.5 - 0.0
25/08:00am 12.3 6.5 6.4 67 2.8 WSW 26 35 14 19 1021.4 - 0.0
25/07:30am 11.3 6.6 6.0 70 2.5 WSW 20 26 11 14 1021.1 - 0.0
25/07:00am 10.7 5.9 5.7 71 2.3 WSW 20 24 11 13 1020.7 - 0.0
25/06:30am 10.8 6.0 5.6 70 2.4 WSW 20 26 11 14 1020.4 - 0.0
25/06:00am 10.9 5.7 5.4 69 2.5 SW 22 28 12 15 1020.2 1019.8 0.0
25/05:30am 10.9 6.3 5.4 69 2.5 WSW 19 24 10 13 1019.9 - 0.0
25/05:00am 11.3 6.1 5.6 68 2.7 SW 22 28 12 15 1019.6 - 0.0
25/04:30am 11.5 6.3 5.4 66 2.8 SW 22 28 12 15 1019.4 - 0.0
25/04:00am 11.7 6.8 5.3 65 3.0 SW 20 26 11 14 1019.3 - 0.0
25/03:30am 12.2 6.6 5.4 63 3.2 SW 24 32 13 17 1019.2 - 0.0
25/03:00am 12.6 7.0 5.5 62 3.3 SW 24 30 13 16 1019.3 1019.0 0.0
25/02:30am 12.7 7.0 5.1 60 3.5 SW 24 35 13 19 1019.4 - 0.0
25/02:00am 13.1 7.4 5.0 58 3.8 SW 24 32 13 17 1019.3 - 0.0
25/01:30am 13.5 7.7 4.6 55 4.1 SW 24 33 13 18 1019.4 - 0.0
25/01:00am 13.9 7.7 4.5 53 4.4 SW 26 33 14 18 1019.3 - 0.0
25/12:30am 14.3 8.0 3.5 48 4.9 SW 26 33 14 18 1019.0 - 0.0
25/12:00am 14.6 8.9 2.8 45 5.3 SW 22 28 12 15 1019.1 1018.8 0.0
 
Date/Time
CST
Temp
°C
App
Temp
°C
Dew
Point
Rel
Hum
%
Delta-T
°C
Wind Press
QNH
hPa
Press
MSL
hPa
Rain
since 9 am
mm
Dir
 
Spd
km/h
Gust
km/h
Spd
kts
Gust
kts
24/11:30pm 14.9 9.2 3.1 45 5.4 SW 22 28 12 15 1019.3 - 0.0
24/11:00pm 15.3 9.3 3.1 44 5.6 SW 24 30 13 16 1019.3 - 0.0
24/10:30pm 15.9 8.8 3.4 43 5.8 SW 30 35 16 19 1019.2 - 0.0
24/10:00pm 16.2 9.1 3.3 42 5.9 SSW 30 37 16 20 1019.1 - 0.0
24/09:30pm 16.7 9.1 3.0 40 6.3 SSW 32 41 17 22 1018.6 - 0.0
24/09:00pm 17.3 8.8 3.2 39 6.5 SSW 37 48 20 26 1018.2 1017.9 0.0
24/08:30pm 18.0 10.6 4.2 40 6.6 SSW 32 44 17 24 1017.7 - 0.0
24/08:02pm 18.9 11.1 4.7 39 6.9 SSW 35 56 19 30 1017.3 - 0.0
24/08:00pm 18.9 11.1 4.7 39 6.9 SSW 35 48 19 26 1017.3 - 0.0
24/07:30pm 19.6 13.1 4.9 38 7.2 SSW 28 35 15 19 1016.6 - 0.0
24/07:00pm 20.2 13.8 5.4 38 7.3 SSW 28 35 15 19 1016.0 - 0.0
24/06:30pm 20.8 13.5 5.6 37 7.6 SW 33 43 18 23 1015.4 - 0.0
24/06:09pm 21.3 14.1 6.0 37 7.7 SW 33 52 18 28 1015.0 - 0.0
24/06:00pm 21.4 13.3 6.9 39 7.4 SW 39 50 21 27 1014.9 1014.5 0.0
24/05:30pm 22.6 14.4 6.4 35 8.3 SW 39 48 21 26 1014.3 - 0.0
24/05:00pm 23.6 15.7 6.4 33 8.9 SW 37 46 20 25 1014.1 - 0.0
24/04:30pm 24.1 16.1 5.9 31 9.3 SW 37 46 20 25 1013.9 - 0.0
24/04:00pm 24.9 16.9 5.7 29 9.9 SW 37 48 20 26 1013.8 - 0.0
24/03:30pm 25.2 17.4 4.9 27 10.3 SW 35 48 19 26 1013.8 - 0.0

Other Formats:

Comma delimited format used in spreadsheet applications
http://www.bom.gov.au/fwo/IDS60801/IDS60801.94476.axf

JavaScript Object Notation format (JSON) in row-major order
http://www.bom.gov.au/fwo/IDS60801/IDS60801.94476.json